Cairns, Australia
Current Conditions -  °F | °C
As of 3:30 PM on Thursday 27 Nov 2014 (Local Time) from YBCS Reporting Station
Few Clouds Few Clouds  
Wind Chill: 88°   Ceiling: Unl
Heat Index: 90°   Visibility: 6mi
Dew Point: 66°   Wind: 16mph
Humidity: 49%   Direction: 110°ESE
Pressure: 29.8"   Gusts: NA
Location:  16.93°S, 145.78°E
Report Text: YBCS 270530Z 11014KT 9999 FEW030 31/19 Q1009
Loading
Personal Weather Stations






























Interactive Weather Map New forecast layout! Learn more

10-Day Weather Forecast

Advertisements
Track Severe Weather on mobile